Latest Coastal Weather Observations for Mallacoota

IDV60701

Issued at 1:55 am EDT Monday 24 November 2014 (issued every 10 minutes, with the page automatically refreshed every 10 minutes)

About coastal observations | Map of coastal stations | Coastal observations for VIC | Marine services | Other Formats
Station Details ID: 084084 Name: MALLACOOTA Lat: -37.60 Lon: 149.73 Height: 22.0 m
Data from the previous 72 hours. | See also: Recent months at Mallacoota
Date/Time
EDT
Temp

°C
Wind Pressure Rain
since 9am
mm
Weather Cloud Vis
km
Sea
Height
m
Swell
Dir
 
Speed
knots
Gust
knots
hPa Trend Height
m
Period
s
Dir
24/01:30am 14.6 NW 5 6 1014.3 - 0.0 - - - - - - -
24/01:00am 14.4 NW 6 8 1014.3 - 0.0 - - - - - - -
24/12:30am 14.2 WNW 4 6 1014.8 - 0.0 - - - - - - -
24/12:00am 14.1 WNW 4 5 1015.1 - 0.0 - - - - - - -
 
Date/Time
EDT
Temp

°C
Wind Pressure Rain
since 9am
mm
Weather Cloud Vis
km
Sea
Height
m
Swell
Dir
 
Speed
knots
Gust
knots
hPa Trend Height
m
Period
s
Dir
23/11:30pm 14.5 W 5 6 1015.3 - 0.0 - - - - - - -
23/11:00pm 14.7 WNW 4 5 1015.4 - 0.0 - - - - - - -
23/10:30pm 15.3 W 4 5 1015.8 - 0.0 - - - - - - -
23/10:00pm 15.6 W 4 5 1015.6 - 0.0 - - - - - - -
23/09:30pm 15.6 W 3 5 1015.1 - 0.0 - - - - - - -
23/09:00pm 15.9 SW 4 5 1014.7 - 0.0 - - - - - - -
23/08:30pm 16.1 SW 4 6 1014.8 - 0.0 - - - - - - -
23/08:00pm 16.6 SSW 3 4 1014.5 - 0.0 - - - - - - -
23/07:30pm 17.2 S 4 5 1013.8 - 0.0 - - - - - - -
23/07:00pm 17.5 S 3 4 1013.3 - 0.0 - - - - - - -
23/06:30pm 17.5 S 5 6 1013.1 - 0.0 - - - - - - -
23/06:00pm 18.5 S 4 6 1012.5 - 0.0 - - - - - - -
23/05:30pm 19.1 S 5 7 1012.3 - 0.0 - - - - - - -
23/05:00pm 19.1 SSE 5 8 1012.2 - 0.0 - - - - - - -
23/04:30pm 18.7 S 6 9 1012.1 - 0.0 - - - - - - -
23/04:00pm 18.5 S 8 10 1012.0 - 0.0 - - - - - - -
23/03:30pm 18.5 S 10 13 1012.2 - 0.0 - - - - - - -
23/03:00pm 18.6 S 10 14 1012.0 - 0.0 - - - - - - -
23/02:30pm 19.4 S 11 16 1012.1 - 0.0 - - - - - - -
23/02:00pm 19.1 S 11 17 1011.9 - 0.0 - - - - - - -
23/01:30pm 18.9 S 13 19 1011.9 - 0.0 - - - - - - -
23/01:00pm 19.0 S 12 17 1012.0 - 0.0 - - - - - - -
23/12:30pm 19.0 S 12 19 1012.1 - 0.0 - - - - - - -
23/12:00pm 19.6 S 12 21 1011.8 - 0.0 - - - - - - -
23/11:30am 19.9 S 11 17 1012.2 - 0.0 - - - - - - -
23/11:00am 20.1 S 11 17 1012.3 - 0.0 - - - - - - -
23/10:30am 20.3 S 12 18 1012.2 - 0.0 - - - - - - -
23/10:00am 21.3 SSW 11 15 1012.0 - 0.0 - - - - - - -
23/09:30am 21.3 S 12 16 1011.8 - 0.0 - - - - - - -
23/09:00am 22.1 WSW 7 14 1012.0 - 0.0 - - - - - - -
23/08:30am 21.1 SW 8 16 1011.5 - 0.0 - - - - - - -
23/08:00am 21.2 SW 8 13 1010.7 - 0.0 - - - - - - -
23/07:30am 22.2 WSW 5 10 1010.9 - 0.0 - - - - - - -
23/07:00am 22.5 WSW 5 10 1010.3 - 0.0 - - - - - - -
23/06:30am 19.6 WNW 1 4 1009.7 - 0.0 - - - - - - -
23/06:00am 19.7 WNW 5 8 1009.2 - 0.0 - - - - - - -
23/05:30am 18.6 NNW 4 6 1008.5 - 0.0 - - - - - - -
23/05:00am 19.2 NE 6 9 1008.4 - 0.0 - - - - - - -
23/04:30am 19.3 NNE 3 5 1007.9 - 0.0 - - - - - - -
23/04:00am 19.7 NNW 7 10 1007.5 - 0.0 - - - - - - -
23/03:30am 19.5 NNW 7 10 1007.1 - 0.0 - - - - - - -
23/03:00am 20.1 NNW 9 12 1007.4 - 0.0 - - - - - - -
23/02:30am 19.8 NW 9 13 1007.4 - 0.0 - - - - - - -
23/02:00am 19.8 NNW 8 13 1007.4 - 0.0 - - - - - - -
23/01:30am 19.5 NNW 7 11 1007.6 - 0.0 - - - - - - -
23/01:00am 19.6 N 7 13 1007.9 - 0.0 - - - - - - -
23/12:30am 19.3 NNW 8 14 1008.6 - 0.0 - - - - - - -
23/12:00am 19.1 NNW 7 10 1008.6 - 0.0 - - - - - - -
 
Date/Time
EDT
Temp

°C
Wind Pressure Rain
since 9am
mm
Weather Cloud Vis
km
Sea
Height
m
Swell
Dir
 
Speed
knots
Gust
knots
hPa Trend Height
m
Period
s
Dir
22/11:30pm 19.0 NW 4 6 1008.9 - 0.0 - - - - - - -
22/11:00pm 19.2 NNW 6 9 1008.9 - 0.0 - - - - - - -
22/10:30pm 19.4 N 6 9 1009.4 - 0.0 - - - - - - -
22/10:00pm 19.2 NNW 8 11 1009.7 - 0.0 - - - - - - -
22/09:30pm 19.4 NNW 8 11 1009.7 - 0.0 - - - - - - -
22/09:00pm 19.9 N 11 17 1009.4 - 0.0 - - - - - - -
22/08:30pm 20.4 NNW 11 15 1009.4 - 0.0 - - - - - - -
22/08:00pm 20.9 N 11 16 1009.3 - 0.0 - - - - - - -
22/07:30pm 21.5 N 10 17 1009.6 - 0.0 - - - - - - -
22/07:00pm 22.2 N 9 13 1009.4 - 0.0 - - - - - - -
22/06:30pm 23.4 N 9 13 1009.2 - 0.0 - - - - - - -
22/06:00pm 23.8 N 7 11 1008.7 - 0.0 - - - - - - -
22/05:30pm 24.4 N 10 13 1008.5 - 0.0 - - - - - - -
22/05:00pm 21.9 NNE 7 12 1009.3 - 0.0 - - - - - - -
22/04:30pm 21.9 NNE 7 13 1009.4 - 0.0 - - - - - - -
22/04:00pm 21.6 NE 10 13 1009.8 - 0.0 - - - - - - -
22/03:30pm 22.2 NE 9 15 1009.9 - 0.0 - - - - - - -
22/03:00pm 22.7 ENE 10 15 1010.1 - 0.0 - - - - - - -
22/02:30pm 22.4 ENE 9 13 1010.5 - 0.0 - - - - - - -
22/02:00pm 23.3 ENE 9 12 1010.5 - 0.0 - - - - - - -
22/01:30pm 26.1 NNE 8 10 1010.7 - 0.0 - - - - - - -
22/01:00pm 26.3 NNE 8 12 1010.9 - 0.0 - - - - - - -
22/12:30pm 25.5 NNE 9 14 1011.1 - 0.0 - - - - - - -
22/12:00pm 24.7 NNE 10 16 1011.3 - 0.0 - - - - - - -
22/11:30am 23.2 NNE 11 15 1011.6 - 0.0 - - - - - - -
22/11:00am 22.7 NNE 11 15 1012.0 - 0.0 - - - - - - -
22/10:30am 21.9 NNE 13 22 1012.2 - 0.0 - - - - - - -
22/10:00am 21.5 N 8 13 1012.6 - 0.0 - - - - - - -
22/09:30am 19.9 N 12 18 1012.9 - 0.0 - - - - - - -
22/09:00am 19.4 N 11 19 1013.2 - 0.0 - - - - - - -
22/08:30am 18.0 N 13 19 1013.3 - 0.0 - - - - - - -
22/08:00am 17.3 N 8 14 1013.6 - 0.0 - - - - - - -
22/07:30am 15.7 N 7 10 1013.5 - 0.0 - - - - - - -
22/07:00am 12.6 NNW 6 9 1013.6 - 0.0 - - - - - - -
22/06:30am 11.9 NNW 9 11 1013.4 - 0.0 - - - - - - -
22/06:00am 10.7 NNW 8 9 1013.4 - 0.0 - - - - - - -
22/05:30am 10.3 NNW 7 10 1013.4 - 0.0 - - - - - - -
22/05:00am 9.7 NW 8 10 1013.3 - 0.0 - - - - - - -
22/04:30am 9.5 WNW 4 5 1013.2 - 0.0 - - - - - - -
22/04:00am 10.1 WNW 6 7 1013.5 - 0.0 - - - - - - -
22/03:30am 10.7 NW 7 9 1013.7 - 0.0 - - - - - - -
22/03:00am 10.7 WNW 5 7 1013.6 - 0.0 - - - - - - -
22/02:30am 10.7 NW 6 8 1014.0 - 0.0 - - - - - - -
22/02:00am 10.6 NW 5 8 1014.3 - 0.0 - - - - - - -
22/01:30am 10.3 NNW 1 3 1014.5 - 0.0 - - - - - - -
22/01:00am 10.9 WNW 4 5 1014.7 - 0.0 - - - - - - -
22/12:30am 11.3 W 5 5 1014.7 - 0.0 - - - - - - -
22/12:00am 11.4 NW 5 6 1015.0 - 0.0 - - - - - - -
 
Date/Time
EDT
Temp

°C
Wind Pressure Rain
since 9am
mm
Weather Cloud Vis
km
Sea
Height
m
Swell
Dir
 
Speed
knots
Gust
knots
hPa Trend Height
m
Period
s
Dir
21/11:30pm 12.1 WNW 4 6 1014.9 - 0.0 - - - - - - -
21/11:00pm 12.4 NW 5 8 1015.0 - 0.0 - - - - - - -
21/10:30pm 12.4 WNW 4 5 1014.8 - 0.0 - - - - - - -
21/10:00pm 13.1 NW 4 6 1014.9 - 0.0 - - - - - - -
21/09:30pm 13.5 NW 4 6 1014.6 - 0.0 - - - - - - -
21/09:00pm 14.0 WNW 2 4 1014.1 - 0.0 - - - - - - -
21/08:30pm 14.9 SW 2 5 1013.7 - 0.0 - - - - - - -
21/08:00pm 15.3 SW 6 9 1013.1 - 0.0 - - - - - - -
21/07:30pm 15.9 SSW 7 12 1012.5 - 0.0 - - - - - - -
21/07:00pm 16.6 SW 11 17 1011.8 - 0.0 - - - - - - -
21/06:30pm 17.2 SSW 13 20 1011.2 - 0.0 - - - - - - -
21/06:00pm 17.7 SSW 13 23 1010.7 - 0.0 - - - - - - -
21/05:30pm 18.7 SSW 9 14 1010.2 - 0.0 - - - - - - -
21/05:00pm 18.4 SW 10 18 1010.1 - 0.0 - - - - - - -
21/04:30pm 17.6 SW 9 14 1010.0 - 0.0 - - - - - - -
21/04:00pm 18.4 SW 11 20 1009.6 - 0.0 - - - - - - -
21/03:30pm 18.2 SW 11 17 1009.5 - 0.0 - - - - - - -
21/03:00pm 18.0 SW 11 20 1009.3 - 0.0 - - - - - - -
21/02:30pm 18.9 SW 12 19 1009.1 - 0.0 - - - - - - -
21/02:00pm 18.5 SW 12 21 1009.1 - 0.0 - - - - - - -
21/01:30pm 19.1 SW 14 21 1008.8 - 0.0 - - - - - - -
21/01:00pm 20.5 SSW 16 25 1008.5 - 0.0 - - - - - - -
21/12:30pm 20.5 SSW 16 28 1008.5 - 0.0 - - - - - - -
21/12:00pm 20.7 SW 15 26 1008.6 - 0.0 - - - - - - -
21/11:37am 21.4 SSW 16 29 1008.2 - 0.0 - - - - - - -
21/11:30am 21.6 SSW 15 23 1007.9 - 0.0 - - - - - - -
21/11:00am 22.9 SSW 13 18 1007.2 - 0.0 - - - - - - -
21/10:30am 23.5 SSW 14 19 1007.2 - 0.0 - - - - - - -
21/10:00am 24.6 SSW 12 19 1006.7 - 0.0 - - - - - - -
21/09:30am 23.8 SW 9 15 1006.6 - 0.0 - - - - - - -
21/09:00am 23.5 SW 11 17 1006.4 - 0.0 - - - - - - -
21/08:30am 23.9 SW 8 12 1006.1 - 0.0 - - - - - - -
21/08:00am 24.1 WSW 7 11 1005.9 - 0.0 - - - - - - -
21/07:30am 22.3 WSW 6 11 1005.7 - 0.0 - - - - - - -
21/07:00am 20.2 WNW 6 9 1004.7 - 0.0 - - - - - - -
21/06:30am 19.1 NW 6 10 1004.1 - 0.0 - - - - - - -
21/06:00am 19.0 NNW 8 12 1003.5 - 0.0 - - - - - - -
21/05:30am 19.0 NNW 9 13 1003.2 - 0.0 - - - - - - -
21/05:00am 18.4 NNW 3 7 1003.4 - 0.0 - - - - - - -
21/04:30am 18.8 N 6 9 1003.4 - 0.0 - - - - - - -
21/04:00am 18.6 N 9 11 1003.8 - 0.0 - - - - - - -
21/03:30am 18.6 N 8 10 1005.1 - 0.0 - - - - - - -
21/03:00am 18.3 NNW 5 7 1006.1 - 0.0 - - - - - - -
21/02:30am 18.0 NW 5 6 1006.7 - 0.0 - - - - - - -
21/02:00am 18.5 WNW 4 5 1007.0 - 0.0 - - - - - - -

Other Formats:

Comma delimited format used in spreadsheet applications
http://www.bom.gov.au/fwo/IDV60701/IDV60701.94935.axf

JavaScript Object Notation format (JSON) in row-major order
http://www.bom.gov.au/fwo/IDV60701/IDV60701.94935.json